• Join FlightAware (Why Join?)
  • Login
  • US Flag 
08:40AM EDT


 

Airport Tracker/Info


-or-


 

Live Flight TrackerFlight Track Log ✈ SWA1707 ✈ 24-Apr-2013 ✈ KBOS - KBNA

Flight Track Log - Related Links

Times and Time Zones

All times are in EDT time to prevent confusion due to time zone crossing. See the SWA1707 flight status page for this flight to view local times or setup timezone preferences in your user account.

Time Position Orientation Groundspeed Altitude Reporting Facility
EDT Latitude Longitude Course Direction KTS MPH feet Rate Location/Type
02:48PM 42.3667 -70.9667 75° East 180 207 700  Level KA90
02:49PM 42.3833 -70.8833 75° East 230 265 2,900 1,920 Climbing KA90
02:50PM 42.3928 -70.8125 80° East 253 291 4,600 2,040 Climbing Boston Center
02:51PM 42.3542 -70.7264 121° Southeast 298 343 6,700 2,400 Climbing Boston Center
02:52PM 42.2750 -70.7369 186° South 265 305 9,400 2,520 Climbing Boston Center
02:53PM 42.2281 -70.8083 228° Southwest 276 318 11,800 1,500 Climbing Boston Center
02:54PM 42.2025 -70.9183 253° West 281 323 12,500 1,260 Climbing Boston Center
02:55PM 42.1981 -71.0500 267° West 315 362 14,400 2,400 Climbing Boston Center
02:56PM 42.1956 -71.1847 269° West 348 400 17,400 2,100 Climbing Boston Center
02:57PM 42.1928 -71.3192 268° West 360 414 18,700 1,440 Climbing Boston Center
02:58PM 42.1939 -71.4622 271° West 370 426 20,300 1,620 Climbing Boston Center
02:59PM 42.1869 -71.6050 266° West 382 440 22,000 1,500 Climbing Boston Center
03:00PM 42.1836 -71.7536 268° West 392 451 23,400 1,320 Climbing Boston Center
03:01PM 42.1803 -71.9022 268° West 397 457 24,700 1,200 Climbing Boston Center
03:02PM 42.1789 -72.0619 269° West 410 472 25,800 1,320 Climbing Boston Center
03:03PM 42.1750 -72.2131 268° West 416 479 27,400 1,380 Climbing Boston Center
03:04PM 42.1692 -72.3672 267° West 416 479 28,600 1,200 Climbing Boston Center
03:05PM 42.1669 -72.5158 269° West 416 479 29,900 1,260 Climbing Boston Center
03:06PM 42.1583 -72.6922 266° West 410 472 31,500 1,020 Climbing Boston Center
03:07PM 42.1017 -72.8206 239° Southwest 389 448 32,200 780 Climbing Boston Center
03:08PM 42.0367 -72.9347 233° Southwest 382 440 33,100 840 Climbing Boston Center
03:09PM 41.9611 -73.0542 230° Southwest 402 463 33,900 420 Climbing Boston Center
03:10PM 41.8625 -73.1508 216° Southwest 398 458 34,000  Climbing Boston Center
03:11PM 41.7361 -73.3147 224° Southwest 400 460 34,000  Level New York Center
03:12PM 41.6567 -73.4200 225° Southwest 400 460 34,000  Level New York Center
03:13PM 41.5900 -73.5117 226° Southwest 400 460 34,000  Level New York Center
03:14PM 41.5128 -73.6136 225° Southwest 394 453 34,000  Level New York Center
03:15PM 41.4331 -73.7181 225° Southwest 394 453 34,000 -60 Level New York Center
03:16PM 41.3556 -73.8225 225° Southwest 394 453 33,900  Descending New York Center
03:17PM 41.2778 -73.9239 224° Southwest 394 453 34,000  Climbing New York Center
03:18PM 41.1981 -74.0275 224° Southwest 394 453 34,000  Level New York Center
03:19PM 41.1242 -74.1342 227° Southwest 394 453 34,000  Level New York Center
03:20PM 41.0667 -74.2497 237° Southwest 394 453 34,000  Level New York Center
03:21PM 41.0131 -74.3706 240° Southwest 394 453 34,000  Level New York Center
03:22PM 40.9553 -74.4883 237° Southwest 387 445 34,000  Level New York Center
03:23PM 40.9014 -74.6092 239° Southwest 387 445 34,000  Level New York Center
03:24PM 40.8456 -74.7239 237° Southwest 382 440 34,000  Level New York Center
03:25PM 40.7894 -74.8411 238° Southwest 382 440 34,000  Level New York Center
03:26PM 40.7350 -74.9639 240° Southwest 382 440 34,000  Level New York Center
03:27PM 40.6808 -75.0811 239° Southwest 382 440 34,000  Level New York Center
03:28PM 40.6264 -75.1981 239° Southwest 382 440 34,000  Level New York Center
03:29PM 40.5742 -75.3175 240° Southwest 377 434 34,000  Level New York Center
03:30PM 40.5214 -75.4369 237° Southwest 377 434 34,000  Level New York Center
03:31PM 40.5126 -75.4416 237° Southwest  Level FlightAware Approximate
03:31PM 40.4667 -75.5558 239° Southwest 377 434 34,000  Level New York Center
03:32PM 40.4119 -75.6722 238° Southwest 377 434 34,000  Level New York Center
03:33PM 40.3569 -75.7908 239° Southwest 377 434 34,000  Level New York Center
03:36PM 40.2250 -76.0697 238° Southwest 391 450 34,000 -60 Level Washington Center
03:37PM 40.1706 -76.1858 238° Southwest 386 444 33,900  Descending Washington Center
03:38PM 40.1178 -76.3022 239° Southwest 381 438 34,000  Climbing Washington Center
03:39PM 40.0628 -76.4208 239° Southwest 381 438 34,000 -480 Level Washington Center
03:40PM 40.0100 -76.5286 237° Southwest 389 448 33,100 -900 Descending Washington Center
03:41PM 39.9550 -76.6444 238° Southwest 389 448 32,200 -1,020 Descending Washington Center
03:42PM 39.8911 -76.7758 238° Southwest 389 448 31,100 -960 Descending Washington Center
03:43PM 39.8464 -76.8725 239° Southwest 389 448 30,300 -600 Descending Washington Center
03:44PM 39.7781 -77.0169 238° Southwest 389 448 30,000 -180 Descending Washington Center
03:45PM 39.7203 -77.1428 239° Southwest 394 453 30,000  Level Washington Center
03:46PM 39.6625 -77.2628 238° Southwest 399 459 30,000 -300 Level Washington Center
03:47PM 39.6086 -77.3828 240° Southwest 399 459 29,400 -780 Descending Washington Center
03:48PM 39.5506 -77.5025 238° Southwest 399 459 28,500 -720 Descending Washington Center
03:49PM 39.4922 -77.6244 238° Southwest 399 459 28,000 -300 Descending Washington Center
03:50PM 39.4339 -77.7439 238° Southwest 399 459 28,000  Level Washington Center
03:51PM 39.3775 -77.8656 239° Southwest 399 459 28,000  Level Washington Center
03:52PM 39.3294 -77.9875 243° Southwest 394 453 28,000  Level Washington Center
03:53PM 39.2808 -78.1147 244° Southwest 389 448 28,000  Level Washington Center
03:54PM 39.2303 -78.2389 242° Southwest 389 448 28,000  Level Washington Center
03:55PM 39.1861 -78.3550 244° Southwest 395 455 28,000  Level Washington Center
03:56PM 39.1353 -78.4789 242° Southwest 400 460 28,000  Level Washington Center
03:57PM 39.0842 -78.6053 243° Southwest 400 460 28,000  Level Washington Center
03:58PM 39.0331 -78.7289 242° Southwest 400 460 28,000  Level Washington Center
03:59PM 38.9817 -78.8547 242° Southwest 400 460 28,000  Level Washington Center
04:00PM 38.9303 -78.9806 242° Southwest 400 460 28,000  Level Washington Center
04:01PM 38.8808 -79.1036 243° Southwest 400 460 28,000  Level Washington Center
04:02PM 38.8353 -79.2322 246° West 400 460 28,000  Level Washington Center
04:03PM 38.8125 -79.3669 258° West 395 455 28,000  Level Washington Center
04:04PM 38.7894 -79.5017 258° West 389 448 28,000  Level Washington Center
04:05PM 38.7614 -79.6519 257° West 394 453 28,000  Level Washington Center
04:06PM 38.7381 -79.7836 257° West 394 453 28,000  Level Washington Center
04:07PM 38.7128 -79.9153 256° West 388 447 28,000  Level Washington Center
04:08PM 38.6917 -80.0311 257° West 388 447 28,000  Level Washington Center
04:09PM 38.6508 -80.2342 256° West 371 427 28,000  Level Indianapolis Center
04:10PM 38.6261 -80.3622 256° West 371 427 28,000  Level Indianapolis Center
04:11PM 38.6028 -80.4872 257° West 363 418 28,000  Level Indianapolis Center
04:12PM 38.5789 -80.6125 256° West 362 417 28,000  Level Indianapolis Center
04:13PM 38.5536 -80.7389 256° West 364 419 28,000  Level Indianapolis Center
04:14PM 38.5294 -80.8622 256° West 363 418 28,000  Level Indianapolis Center
04:15PM 38.5056 -80.9869 256° West 361 415 28,000  Level Indianapolis Center
04:16PM 38.4764 -81.1353 256° West 358 412 28,000  Level Indianapolis Center
04:17PM 38.4522 -81.2586 256° West 357 411 28,000  Level Indianapolis Center
04:18PM 38.4278 -81.3836 256° West 360 414 28,000  Level Indianapolis Center
04:20PM 38.4025 -81.5083 256° West 360 414 28,000  Level Indianapolis Center
04:21PM 38.3781 -81.6319 256° West 357 411 28,000  Level Indianapolis Center
04:22PM 38.3553 -81.7542 257° West 354 407 28,000  Level Indianapolis Center
04:23PM 38.3439 -81.8808 263° West 358 412 28,000  Level Indianapolis Center
04:24PM 38.3306 -82.0061 262° West 356 410 28,000  Level Indianapolis Center
04:25PM 38.3150 -82.1558 263° West 357 411 28,000  Level Indianapolis Center
04:26PM 38.3025 -82.2800 263° West 354 407 28,000  Level Indianapolis Center
04:27PM 38.2636 -82.3908 246° West 345 397 28,000  Level Indianapolis Center
04:28PM 38.2258 -82.5011 246° West 348 400 28,000  Level Indianapolis Center
04:29PM 38.1828 -82.6317 247° West 344 396 28,000  Level Indianapolis Center
04:30PM 38.1447 -82.7419 246° West 342 394 28,000  Level Indianapolis Center
04:31PM 38.1075 -82.8539 247° West 344 396 28,000  Level Indianapolis Center
04:32PM 38.0697 -82.9614 246° West 338 389 28,000  Level Indianapolis Center
04:33PM 38.0147 -83.0611 235° Southwest 343 395 28,000  Level Indianapolis Center
04:34PM 37.9522 -83.1761 235° Southwest 341 392 28,000  Level Indianapolis Center
04:35PM 37.8994 -83.2747 236° Southwest 341 392 28,000  Level Indianapolis Center
04:36PM 37.8458 -83.3733 235° Southwest 340 391 28,000  Level Indianapolis Center
04:37PM 37.7931 -83.4714 236° Southwest 340 391 28,000  Level Indianapolis Center
04:38PM 37.7308 -83.5844 235° Southwest 338 389 28,000  Level Indianapolis Center
04:39PM 37.6769 -83.6825 235° Southwest 340 391 28,000  Level Indianapolis Center
04:40PM 37.6256 -83.7775 236° Southwest 332 382 28,000  Level Indianapolis Center
04:41PM 37.5719 -83.8733 235° Southwest 333 383 28,000  Level Indianapolis Center
04:42PM 37.5192 -83.9689 235° Southwest 333 383 28,000  Level Indianapolis Center
04:43PM 37.4569 -84.0803 235° Southwest 334 384 28,000  Level Indianapolis Center
04:44PM 37.4044 -84.1753 235° Southwest 332 382 28,000  Level Indianapolis Center
04:45PM 37.3511 -84.2719 235° Southwest 336 387 28,000  Level Indianapolis Center
04:46PM 37.2967 -84.3681 235° Southwest 337 388 28,000 -180 Level Indianapolis Center
04:47PM 37.2436 -84.4647 235° Southwest 339 390 27,700 -780 Descending Indianapolis Center
04:48PM 37.1789 -84.5781 234° Southwest 343 395 26,500 -1,140 Descending Indianapolis Center
04:49PM 37.1253 -84.6742 235° Southwest 336 387 25,400 -960 Descending Indianapolis Center
04:51PM 37.0717 -84.7669 234° Southwest 329 379 24,600 -780 Descending Indianapolis Center
04:52PM 37.0167 -84.8642 235° Southwest 326 375 23,900 -660 Descending Indianapolis Center
04:53PM 36.9642 -84.9550 234° Southwest 323 372 23,300 -600 Descending Indianapolis Center
04:54PM 36.9172 -85.0436 236° Southwest 313 360 22,700 -540 Descending Indianapolis Center
04:55PM 36.8761 -85.1331 240° Southwest 301 346 22,200 -360 Descending Indianapolis Center
04:56PM 36.8278 -85.2369 240° Southwest 290 334 22,000 -120 Descending Indianapolis Center
04:57PM 36.7872 -85.3219 239° Southwest 286 329 22,000  Level Indianapolis Center
04:57PM 36.7553 -85.3875 239° Southwest 300 345 22,000  Level Memphis Center
04:58PM 36.7150 -85.4781 241° Southwest 300 345 22,000  Level Memphis Center
04:59PM 36.6747 -85.5658 240° Southwest 300 345 22,000  Level Memphis Center
05:00PM 36.6300 -85.6536 238° Southwest 300 345 22,000 -360 Level Memphis Center
05:01PM 36.5894 -85.7361 239° Southwest 300 345 21,300 -1,020 Descending Memphis Center
05:02PM 36.5528 -85.8183 241° Southwest 288 331 20,000 -720 Descending Memphis Center
05:03PM 36.5161 -85.8953 239° Southwest 270 311 19,900 -1,080 Descending Memphis Center
05:04PM 36.4772 -85.9775 240° Southwest 270 311 17,900 -1,740 Descending Memphis Center
05:05PM 36.4444 -86.0489 240° Southwest 275 316 16,500 -1,800 Descending Memphis Center
05:06PM 36.4053 -86.1283 239° Southwest 275 316 14,400 -1,980 Descending Memphis Center
05:07PM 36.3664 -86.2078 239° Southwest 275 316 12,600 -1,800 Descending Memphis Center
05:08PM 36.3294 -86.2842 239° Southwest 270 311 10,800 -1,380 Descending Memphis Center
05:09PM 36.2942 -86.3608 240° Southwest 264 304 9,900 -1,200 Descending Memphis Center
05:10PM 36.2569 -86.4344 238° Southwest 253 291 8,400 -1,500 Descending Memphis Center
05:11PM 36.2236 -86.5031 239° Southwest 241 277 7,000 -1,320 Descending Memphis Center
05:12PM 36.1664 -86.5367 205° Southwest 222 255 5,800 -1,020 Descending Memphis Center
05:13PM 36.1042 -86.5497 190° South 222 255 5,000 -480 Descending Memphis Center
05:14PM 36.0442 -86.5656 192° South 222 255 4,900 -180 Descending Memphis Center
05:15PM 35.9947 -86.5781 192° South 204 235 4,700 -600 Descending Memphis Center
05:18PM 35.9000 -86.6333 205° Southwest 183 211 3,000 -540 Descending Nashville TRACON
05:19PM 35.8833 -86.6833 248° West 167 192 3,000  Level Nashville TRACON
05:20PM 35.9000 -86.7333 292° West 164 189 3,000  Level Nashville TRACON
05:21PM 35.9500 -86.7333 360° North 171 197 3,000  Level Nashville TRACON
05:22PM 35.9833 -86.7167 22° Northeast 167 192 3,000 -240 Level Nashville TRACON
05:23PM 36.0333 -86.7000 15° North 164 189 2,600 -720 Descending Nashville TRACON
05:24PM 36.0667 -86.6833 22° Northeast 152 175 1,600 -960 Descending Nashville TRACON
05:25PM 36.1000 -86.6667 22° Northeast 127 146 700 -900 Descending Nashville TRACON
05:27PM 36.1167 -86.6667 353° North  Level FlightAware Approximate
05:34PM 36.1245 -86.6782 353° North  Level Estimated
05:35PM 36.1245 -86.6782 353° North  Level Estimated
05:36PM 36.1245 -86.6782 353° North  Level Estimated